createdAt,value
2018-11-05T00:01:09.669Z,101303.20
2018-11-05T00:03:40.741Z,101299.52
2018-11-05T00:06:11.859Z,101301.36
2018-11-05T00:08:44.994Z,101295.59
2018-11-05T00:11:17.413Z,101298.96
2018-11-05T00:13:48.938Z,101288.73
2018-11-05T00:16:19.948Z,101286.16
2018-11-05T00:18:53.259Z,101282.42
2018-11-05T00:21:25.034Z,101281.11
2018-11-05T00:23:56.169Z,101272.02
2018-11-05T00:26:27.585Z,101280.67
2018-11-05T00:28:59.105Z,101274.99
2018-11-05T00:31:30.555Z,101274.99
2018-11-05T00:34:01.776Z,101277.39
2018-11-05T00:36:33.583Z,101277.08
2018-11-05T00:39:05.638Z,101269.44
2018-11-05T00:41:38.224Z,101268.25
2018-11-05T00:44:10.508Z,101258.34
2018-11-05T00:46:41.921Z,101260.09
2018-11-05T00:49:13.401Z,101260.84
2018-11-05T00:51:45.587Z,101267.69
2018-11-05T00:54:16.584Z,101270.38
2018-11-05T00:56:48.868Z,101271.71
2018-11-05T00:59:20.629Z,101266.75
2018-11-05T01:01:51.857Z,101264.56
2018-11-05T01:04:23.315Z,101261.34
2018-11-05T01:06:55.330Z,101261.53
2018-11-05T01:09:27.767Z,101267.84
2018-11-05T01:11:59.590Z,101269.19
2018-11-05T01:14:31.475Z,101270.65
2018-11-05T01:17:03.391Z,101268.06
2018-11-05T01:19:34.906Z,101264.44
2018-11-05T01:22:06.834Z,101256.73
2018-11-05T01:24:38.211Z,101255.27
2018-11-05T01:27:10.057Z,101246.36
2018-11-05T01:29:41.634Z,101250.89
2018-11-05T01:32:14.194Z,101253.75
2018-11-05T01:34:45.200Z,101247.35
2018-11-05T01:37:16.316Z,101243.02
2018-11-05T01:39:48.738Z,101245.20
2018-11-05T01:42:20.151Z,101238.58
2018-11-05T01:44:51.370Z,101239.06
2018-11-05T01:47:23.599Z,101238.14
2018-11-05T01:49:54.674Z,101233.70
2018-11-05T01:52:27.266Z,101233.16
2018-11-05T01:54:58.424Z,101231.42
2018-11-05T01:57:29.847Z,101225.02
2018-11-05T02:00:01.326Z,101224.12
2018-11-05T02:02:33.353Z,101224.62
2018-11-05T02:05:04.859Z,101228.91
2018-11-05T02:07:35.855Z,101227.52
2018-11-05T02:10:10.905Z,101224.70
2018-11-05T02:12:44.659Z,101224.20
2018-11-05T02:15:15.870Z,101214.28
2018-11-05T02:17:48.072Z,101214.91
2018-11-05T02:20:19.436Z,101210.79
2018-11-05T02:22:51.452Z,101213.46
2018-11-05T02:25:23.475Z,101219.03
2018-11-05T02:27:55.008Z,101215.17
2018-11-05T02:30:26.159Z,101213.24
2018-11-05T02:32:57.198Z,101209.67
2018-11-05T02:35:29.619Z,101195.66
2018-11-05T02:38:01.891Z,101195.20
2018-11-05T02:40:32.958Z,101191.76
2018-11-05T02:43:04.353Z,101181.43
2018-11-05T02:45:35.889Z,101182.58
2018-11-05T02:48:07.346Z,101180.39
2018-11-05T02:50:39.382Z,101180.84
2018-11-05T02:53:10.398Z,101184.95
2018-11-05T02:55:41.849Z,101183.70
2018-11-05T02:58:13.911Z,101180.48
2018-11-05T03:00:45.794Z,101176.98
2018-11-05T03:03:18.255Z,101168.00
2018-11-05T03:05:50.140Z,101162.52
2018-11-05T03:08:21.494Z,101161.28
2018-11-05T03:10:53.285Z,101159.53
2018-11-05T03:13:25.418Z,101160.33
2018-11-05T03:15:56.481Z,101158.81
2018-11-05T03:18:29.647Z,101159.88
2018-11-05T03:21:01.970Z,101150.80
2018-11-05T03:23:33.388Z,101163.06
2018-11-05T03:26:06.122Z,101160.46
2018-11-05T03:28:37.133Z,101164.58
2018-11-05T03:31:08.518Z,101152.18
2018-11-05T03:33:39.558Z,101154.95
2018-11-05T03:36:11.903Z,101150.11
2018-11-05T03:38:43.759Z,101151.06
2018-11-05T03:41:15.313Z,101149.58
2018-11-05T03:43:46.401Z,101153.83
2018-11-05T03:46:17.812Z,101158.34
2018-11-05T03:48:48.881Z,101163.80
2018-11-05T03:51:21.278Z,101148.85
2018-11-05T03:53:52.412Z,101150.98
2018-11-05T03:56:24.878Z,101146.48
2018-11-05T03:58:57.152Z,101144.27
2018-11-05T04:01:28.636Z,101135.11
2018-11-05T04:04:00.126Z,101142.05
2018-11-05T04:06:31.943Z,101149.58
2018-11-05T04:09:03.723Z,101140.09
2018-11-05T04:11:35.825Z,101139.45
2018-11-05T04:14:07.323Z,101131.56
2018-11-05T04:16:39.304Z,101125.31
2018-11-05T04:19:10.820Z,101126.05
2018-11-05T04:21:45.485Z,101127.08
2018-11-05T04:24:17.918Z,101127.08
2018-11-05T04:26:49.960Z,101128.42
2018-11-05T04:29:21.673Z,101122.16
2018-11-05T04:31:53.073Z,101125.95
2018-11-05T04:34:26.001Z,101121.70
2018-11-05T04:36:58.322Z,101128.56
2018-11-05T04:39:30.458Z,101126.91
2018-11-05T04:42:02.519Z,101125.80
2018-11-05T04:44:33.580Z,101122.30
2018-11-05T04:47:04.671Z,101115.81
2018-11-05T04:49:36.455Z,101119.61
2018-11-05T04:52:08.206Z,101122.47
2018-11-05T04:54:39.326Z,101119.16
2018-11-05T04:57:11.478Z,101113.95
2018-11-05T04:59:42.495Z,101120.00
2018-11-05T05:02:13.992Z,101116.11
2018-11-05T05:04:45.493Z,101109.39
2018-11-05T05:07:17.388Z,101115.30
2018-11-05T05:09:49.443Z,101117.67
2018-11-05T05:12:20.480Z,101120.09
2018-11-05T05:14:52.844Z,101118.87
2018-11-05T05:17:25.606Z,101110.23
2018-11-05T05:19:58.423Z,101102.75
2018-11-05T05:22:30.490Z,101097.69
2018-11-05T05:25:01.438Z,101100.38
2018-11-05T05:27:33.879Z,101094.77
2018-11-05T05:30:06.050Z,101099.03
2018-11-05T05:32:38.053Z,101100.14
2018-11-05T05:35:09.103Z,101094.85
2018-11-05T05:37:41.308Z,101087.33
2018-11-05T05:40:12.786Z,101090.09
2018-11-05T05:42:45.917Z,101079.20
2018-11-05T05:45:17.414Z,101077.85
2018-11-05T05:47:48.461Z,101078.39
2018-11-05T05:50:19.987Z,101081.58
2018-11-05T05:52:53.008Z,101078.81
2018-11-05T05:55:24.981Z,101088.14
2018-11-05T05:57:57.272Z,101083.83
2018-11-05T06:00:29.304Z,101083.38
2018-11-05T06:03:00.378Z,101072.78
2018-11-05T06:05:31.904Z,101071.13
2018-11-05T06:08:03.958Z,101068.02
2018-11-05T06:10:35.883Z,101071.29
2018-11-05T06:13:07.931Z,101078.89
2018-11-05T06:15:40.485Z,101081.07
2018-11-05T06:18:12.245Z,101088.30
2018-11-05T06:20:43.332Z,101100.55
2018-11-05T06:23:14.788Z,101095.17
2018-11-05T06:25:46.193Z,101097.20
2018-11-05T06:28:17.675Z,101101.73
2018-11-05T06:30:49.147Z,101103.46
2018-11-05T06:33:20.242Z,101108.27
2018-11-05T06:35:51.365Z,101106.84
2018-11-05T06:38:22.445Z,101114.06
2018-11-05T06:40:54.234Z,101113.27
2018-11-05T06:43:26.513Z,101113.19
2018-11-05T06:45:57.561Z,101114.00
2018-11-05T06:48:29.075Z,101111.31
2018-11-05T06:51:00.135Z,101108.11
2018-11-05T06:53:31.242Z,101105.34
2018-11-05T06:56:03.935Z,101110.42
2018-11-05T06:58:35.840Z,101107.73
2018-11-05T07:01:08.060Z,101107.20
2018-11-05T07:03:39.502Z,101104.31
2018-11-05T07:06:11.367Z,101103.86
2018-11-05T07:08:43.749Z,101110.50
2018-11-05T07:11:16.165Z,101096.67
2018-11-05T07:13:48.086Z,101101.39
2018-11-05T07:16:20.401Z,101099.83
2018-11-05T07:18:53.034Z,101091.84
2018-11-05T07:21:24.395Z,101098.78
2018-11-05T07:23:55.828Z,101096.60
2018-11-05T07:26:26.896Z,101093.80
2018-11-05T07:28:58.517Z,101106.47
2018-11-05T07:31:30.378Z,101106.25
2018-11-05T07:34:03.252Z,101107.97
2018-11-05T07:36:34.034Z,101105.66
2018-11-05T07:39:07.259Z,101110.08
2018-11-05T07:41:38.999Z,101106.86
2018-11-05T07:44:11.493Z,101106.62
2018-11-05T07:46:43.090Z,101107.47
2018-11-05T07:49:14.770Z,101107.63
2018-11-05T07:51:46.932Z,101102.05
2018-11-05T07:54:18.781Z,101098.21
2018-11-05T07:56:50.159Z,101098.36
2018-11-05T07:59:21.989Z,101101.20
2018-11-05T08:01:54.392Z,101101.63
2018-11-05T08:04:26.034Z,101101.20
2018-11-05T08:06:57.281Z,101096.89
2018-11-05T08:09:28.819Z,101099.70
2018-11-05T08:11:59.859Z,101096.59
2018-11-05T08:14:31.630Z,101099.59
2018-11-05T08:17:04.424Z,101095.23
2018-11-05T08:19:35.965Z,101099.13
2018-11-05T08:22:07.061Z,101101.58
2018-11-05T08:24:38.069Z,101090.47
2018-11-05T08:27:10.507Z,101088.05
2018-11-05T08:29:42.137Z,101077.91
2018-11-05T08:32:14.776Z,101073.49
2018-11-05T08:34:45.819Z,101066.27
2018-11-05T08:37:16.958Z,101070.50
2018-11-05T08:39:49.290Z,101073.41
2018-11-05T08:42:20.392Z,101071.98
2018-11-05T08:44:51.812Z,101068.87
2018-11-05T08:47:23.353Z,101070.20
2018-11-05T08:49:55.374Z,101067.27
2018-11-05T08:52:26.985Z,101057.55
2018-11-05T08:54:58.005Z,101058.46
2018-11-05T08:57:29.614Z,101057.86
2018-11-05T09:00:03.058Z,101060.83
2018-11-05T09:02:34.104Z,101062.17
2018-11-05T09:05:05.233Z,101053.80
2018-11-05T09:07:36.352Z,101049.09
2018-11-05T09:10:08.464Z,101038.91
2018-11-05T09:12:39.376Z,101029.18
2018-11-05T09:15:12.702Z,101039.70
2018-11-05T09:17:46.187Z,101042.84
2018-11-05T09:20:18.419Z,101037.02
2018-11-05T09:22:50.275Z,101040.15
2018-11-05T09:25:21.504Z,101045.53
2018-11-05T09:27:53.047Z,101044.19
2018-11-05T09:30:25.173Z,101043.45
2018-11-05T09:32:56.218Z,101053.74
2018-11-05T09:35:27.306Z,101050.41
2018-11-05T09:37:58.784Z,101038.06
2018-11-05T09:40:30.997Z,101044.39
2018-11-05T09:43:02.418Z,101049.27
2018-11-05T09:45:33.467Z,101041.59
2018-11-05T09:48:04.877Z,101037.69
2018-11-05T09:50:36.588Z,101043.73
2018-11-05T09:53:07.722Z,101039.33
2018-11-05T09:55:39.745Z,101041.86
2018-11-05T09:58:10.717Z,101033.51
2018-11-05T10:00:41.792Z,101040.06
2018-11-05T10:03:17.245Z,101039.95
2018-11-05T10:05:48.390Z,101040.77
2018-11-05T10:08:19.910Z,101039.72
2018-11-05T10:10:52.375Z,101036.80
2018-11-05T10:13:23.425Z,101041.73
2018-11-05T10:15:54.511Z,101035.06
2018-11-05T10:18:26.388Z,101030.90
2018-11-05T10:20:58.442Z,101028.45
2018-11-05T10:23:29.636Z,101022.17
2018-11-05T10:26:00.672Z,101026.81
2018-11-05T10:28:32.636Z,101026.03
2018-11-05T10:31:03.664Z,101028.45
2018-11-05T10:33:34.860Z,101031.72
2018-11-05T10:36:05.783Z,101025.86
2018-11-05T10:38:37.244Z,101030.13
2018-11-05T10:41:08.393Z,101025.98
2018-11-05T10:43:39.441Z,101024.51
2018-11-05T10:46:11.342Z,101031.24
2018-11-05T10:48:42.331Z,101027.00
2018-11-05T10:51:13.512Z,101023.13
2018-11-05T10:53:45.014Z,101024.06
2018-11-05T10:56:16.349Z,101022.54
2018-11-05T10:58:48.229Z,101019.42
2018-11-05T11:01:37.958Z,101019.42
2018-11-05T11:04:26.756Z,101009.81
2018-11-05T11:06:58.229Z,101002.63
2018-11-05T11:09:29.407Z,100998.41
2018-11-05T11:12:01.587Z,101001.82
2018-11-05T11:14:33.094Z,100992.66
2018-11-05T11:17:05.070Z,100991.31
2018-11-05T11:19:36.284Z,100985.92
2018-11-05T11:22:07.374Z,100981.99
2018-11-05T11:24:38.769Z,100984.93
2018-11-05T11:27:10.184Z,100972.48
2018-11-05T11:29:41.739Z,100968.17
2018-11-05T11:32:13.507Z,100969.58
2018-11-05T11:34:46.864Z,100969.80
2018-11-05T11:37:19.092Z,100969.04
2018-11-05T11:39:51.891Z,100964.65
2018-11-05T11:42:23.504Z,100959.66
2018-11-05T11:44:55.168Z,100955.03
2018-11-05T11:47:26.317Z,100956.32
2018-11-05T11:49:58.333Z,100947.12
2018-11-05T11:52:29.451Z,100944.73
2018-11-05T11:55:00.445Z,100943.38
2018-11-05T11:57:32.353Z,100934.86
2018-11-05T12:00:03.740Z,100935.45
2018-11-05T12:02:34.802Z,100933.00
2018-11-05T12:05:07.148Z,100915.28
2018-11-05T12:07:38.023Z,100914.80
2018-11-05T12:10:29.988Z,100920.97
2018-11-05T12:13:01.275Z,100919.73
2018-11-05T12:15:32.682Z,100910.19
2018-11-05T12:18:04.282Z,100913.88
2018-11-05T12:20:35.810Z,100910.65
2018-11-05T12:23:06.937Z,100906.84
2018-11-05T12:25:38.700Z,100901.31
2018-11-05T12:28:10.154Z,100900.45
2018-11-05T12:30:41.595Z,100897.91
2018-11-05T12:33:13.019Z,100901.80
2018-11-05T12:35:44.902Z,100902.56
2018-11-05T12:38:15.947Z,100898.77
2018-11-05T12:40:47.438Z,100902.00
2018-11-05T12:43:19.338Z,100900.84
2018-11-05T12:45:50.367Z,100895.77
2018-11-05T12:48:21.427Z,100902.80
2018-11-05T12:50:53.268Z,100898.25
2018-11-05T12:53:24.619Z,100887.73
2018-11-05T12:55:56.676Z,100886.83
2018-11-05T12:58:28.127Z,100880.63
2018-11-05T13:01:00.515Z,100888.66
2018-11-05T13:03:33.954Z,100885.89
2018-11-05T13:06:05.501Z,100882.11
2018-11-05T13:08:36.865Z,100881.92
2018-11-05T13:11:08.335Z,100886.07
2018-11-05T13:13:41.158Z,100888.98
2018-11-05T13:16:12.730Z,100881.73
2018-11-05T13:18:43.782Z,100874.80
2018-11-05T13:21:15.852Z,100879.28
2018-11-05T13:23:47.764Z,100867.47
2018-11-05T13:26:19.167Z,100871.56
2018-11-05T13:28:50.233Z,100867.81
2018-11-05T13:31:22.184Z,100865.61
2018-11-05T13:33:53.443Z,100874.09
2018-11-05T13:36:25.058Z,100874.45
2018-11-05T13:38:58.624Z,100875.70
2018-11-05T13:41:29.666Z,100878.69
2018-11-05T13:44:02.539Z,100870.09
2018-11-05T13:46:35.476Z,100878.18
2018-11-05T13:49:06.458Z,100880.53
2018-11-05T13:51:37.163Z,100874.09
2018-11-05T13:54:09.540Z,100878.89
2018-11-05T13:56:41.189Z,100874.55
2018-11-05T13:59:12.704Z,100864.30
2018-11-05T14:01:45.032Z,100857.52
2018-11-05T14:04:16.204Z,100859.33
2018-11-05T14:06:47.993Z,100859.06
2018-11-05T14:09:19.954Z,100854.42
2018-11-05T14:11:51.432Z,100856.07
2018-11-05T14:14:22.484Z,100838.64
2018-11-05T14:16:54.124Z,100840.95
2018-11-05T14:19:25.186Z,100840.75
2018-11-05T14:21:56.269Z,100838.64
2018-11-05T14:24:27.338Z,100837.81
2018-11-05T14:26:59.247Z,100840.00
2018-11-05T14:29:31.159Z,100830.90
2018-11-05T14:32:01.749Z,100845.29
2018-11-05T14:34:33.659Z,100844.23
2018-11-05T14:37:05.592Z,100834.80
2018-11-05T14:39:37.282Z,100835.06
2018-11-05T14:42:08.343Z,100832.86
2018-11-05T14:44:40.332Z,100837.95
2018-11-05T14:47:11.849Z,100833.45
2018-11-05T14:49:42.904Z,100837.50
2018-11-05T14:52:14.330Z,100837.95
2018-11-05T14:54:45.517Z,100847.06
2018-11-05T14:57:17.871Z,100847.20
2018-11-05T14:59:50.707Z,100845.86
2018-11-05T15:02:37.992Z,100845.11
2018-11-05T15:05:10.227Z,100838.96
2018-11-05T15:07:42.971Z,100836.67
2018-11-05T15:10:15.226Z,100836.33
2018-11-05T15:12:46.780Z,100836.38
2018-11-05T15:15:19.302Z,100828.30
2018-11-05T15:17:51.545Z,100829.03
2018-11-05T15:20:23.718Z,100825.89
2018-11-05T15:22:54.721Z,100818.66
2018-11-05T15:25:26.740Z,100816.46
2018-11-05T15:27:57.896Z,100816.36
2018-11-05T15:30:29.304Z,100823.39
2018-11-05T15:33:00.322Z,100818.59
2018-11-05T15:35:32.265Z,100810.67
2018-11-05T15:38:04.188Z,100810.97
2018-11-05T15:40:35.282Z,100810.58
2018-11-05T15:43:07.703Z,100807.42
2018-11-05T15:45:39.277Z,100797.70
2018-11-05T15:48:10.712Z,100796.55
2018-11-05T15:50:42.509Z,100791.35
2018-11-05T15:53:14.597Z,100793.50
2018-11-05T15:55:45.935Z,100796.49
2018-11-05T15:58:17.975Z,100792.86
2018-11-05T16:00:50.062Z,100796.25
2018-11-05T16:03:21.612Z,100803.47
2018-11-05T16:05:54.238Z,100802.58
2018-11-05T16:08:25.905Z,100795.42
2018-11-05T16:10:57.450Z,100800.86
2018-11-05T16:13:28.976Z,100797.63
2018-11-05T16:16:00.016Z,100807.97
2018-11-05T16:18:31.426Z,100808.45
2018-11-05T16:21:03.463Z,100807.67
2018-11-05T16:23:34.629Z,100799.47
2018-11-05T16:26:07.834Z,100802.38
2018-11-05T16:28:39.870Z,100799.52
2018-11-05T16:31:11.049Z,100791.60
2018-11-05T16:33:42.703Z,100791.03
2018-11-05T16:36:13.786Z,100792.38
2018-11-05T16:38:46.489Z,100791.03
2018-11-05T16:41:19.015Z,100785.95
2018-11-05T16:43:50.030Z,100788.10
2018-11-05T16:46:21.148Z,100779.48
2018-11-05T16:48:52.145Z,100776.33
2018-11-05T16:51:25.069Z,100774.09
2018-11-05T16:53:57.100Z,100770.55
2018-11-05T16:56:28.968Z,100779.22
2018-11-05T16:59:00.086Z,100777.87
2018-11-05T17:01:31.781Z,100778.03
2018-11-05T17:04:03.464Z,100777.98
2018-11-05T17:06:34.510Z,100782.06
2018-11-05T17:09:07.305Z,100784.60
2018-11-05T17:11:39.034Z,100782.42
2018-11-05T17:14:11.330Z,100785.06
2018-11-05T17:16:43.112Z,100779.02
2018-11-05T17:19:15.660Z,100773.34
2018-11-05T17:21:46.936Z,100774.39
2018-11-05T17:24:18.140Z,100771.59
2018-11-05T17:26:49.489Z,100770.73
2018-11-05T17:29:20.771Z,100774.48
2018-11-05T17:31:51.866Z,100779.41
2018-11-05T17:34:23.170Z,100778.79
2018-11-05T17:36:54.550Z,100776.55
2018-11-05T17:39:26.007Z,100774.34
2018-11-05T17:41:57.057Z,100773.53
2018-11-05T17:44:28.076Z,100780.80
2018-11-05T17:47:00.567Z,100775.47
2018-11-05T17:49:33.237Z,100788.36
2018-11-05T17:52:05.307Z,100785.67
2018-11-05T17:54:36.519Z,100782.55
2018-11-05T17:57:07.778Z,100779.32
2018-11-05T17:59:40.683Z,100779.27
2018-11-05T18:02:18.659Z,100772.78
2018-11-05T18:04:50.688Z,100777.22
2018-11-05T18:07:22.391Z,100779.32
2018-11-05T18:09:55.448Z,100769.66
2018-11-05T18:12:27.401Z,100777.67
2018-11-05T18:15:18.036Z,100772.34
2018-11-05T18:17:49.527Z,100769.52
2018-11-05T18:20:21.062Z,100769.52
2018-11-05T18:22:52.248Z,100769.22
2018-11-05T18:25:23.459Z,100773.95
2018-11-05T18:27:54.531Z,100767.28
2018-11-05T18:30:27.245Z,100769.35
2018-11-05T18:32:59.163Z,100759.41
2018-11-05T18:35:31.029Z,100760.58
2018-11-05T18:38:02.125Z,100756.67
2018-11-05T18:40:33.209Z,100752.45
2018-11-05T18:43:06.187Z,100749.11
2018-11-05T18:45:37.863Z,100754.50
2018-11-05T18:48:09.842Z,100756.13
2018-11-05T18:50:41.810Z,100756.88
2018-11-05T18:53:13.917Z,100749.05
2018-11-05T18:55:45.369Z,100750.27
2018-11-05T18:58:16.904Z,100745.23
2018-11-05T19:00:49.311Z,100744.87
2018-11-05T19:03:22.462Z,100747.95
2018-11-05T19:05:53.706Z,100744.11
2018-11-05T19:08:25.687Z,100743.56
2018-11-05T19:10:57.545Z,100737.59
2018-11-05T19:13:29.342Z,100737.14
2018-11-05T19:16:00.773Z,100727.81
2018-11-05T19:18:32.186Z,100728.88
2018-11-05T19:21:03.946Z,100721.16
2018-11-05T19:23:36.374Z,100720.48
2018-11-05T19:26:07.714Z,100714.39
2018-11-05T19:28:40.661Z,100720.52
2018-11-05T19:31:11.592Z,100723.91
2018-11-05T19:33:42.885Z,100721.66
2018-11-05T19:36:14.309Z,100707.13
2018-11-05T19:38:46.500Z,100702.14
2018-11-05T19:41:19.342Z,100699.55
2018-11-05T19:43:51.529Z,100696.33
2018-11-05T19:46:25.401Z,100699.23
2018-11-05T19:48:57.655Z,100700.51
2018-11-05T19:51:33.789Z,100705.19
2018-11-05T19:54:09.889Z,100710.23
2018-11-05T19:56:45.756Z,100706.98
2018-11-05T19:59:21.355Z,100704.08
2018-11-05T20:01:56.235Z,100704.30
2018-11-05T20:04:31.530Z,100709.66
2018-11-05T20:07:09.716Z,100707.41
2018-11-05T20:09:44.653Z,100710.55
2018-11-05T20:12:36.806Z,100713.15
2018-11-05T20:15:11.264Z,100713.94
2018-11-05T20:17:44.981Z,100702.60
2018-11-05T20:20:18.502Z,100698.70
2018-11-05T20:22:50.772Z,100693.16
2018-11-05T20:25:23.924Z,100692.83
2018-11-05T20:27:55.256Z,100688.56
2018-11-05T20:30:28.365Z,100685.00
2018-11-05T20:33:00.277Z,100677.63
2018-11-05T20:35:30.995Z,100682.20
2018-11-05T20:38:02.029Z,100687.26
2018-11-05T20:40:34.786Z,100689.30
2018-11-05T20:43:06.960Z,100688.43
2018-11-05T20:45:38.371Z,100695.59
2018-11-05T20:48:10.030Z,100695.29
2018-11-05T20:50:41.120Z,100691.83
2018-11-05T20:53:12.195Z,100694.65
2018-11-05T20:55:44.263Z,100689.05
2018-11-05T20:58:16.264Z,100694.98
2018-11-05T21:00:47.348Z,100687.73
2018-11-05T21:03:19.331Z,100685.67
2018-11-05T21:05:51.619Z,100684.16
2018-11-05T21:08:22.996Z,100678.33
2018-11-05T21:10:54.184Z,100673.20
2018-11-05T21:13:26.518Z,100674.23
2018-11-05T21:15:57.619Z,100675.45
2018-11-05T21:18:29.273Z,100679.60
2018-11-05T21:21:00.854Z,100684.52
2018-11-05T21:23:31.892Z,100670.48
2018-11-05T21:26:03.835Z,100668.45
2018-11-05T21:28:35.336Z,100668.10
2018-11-05T21:31:09.227Z,100668.23
2018-11-05T21:33:40.239Z,100659.39
2018-11-05T21:36:11.462Z,100658.56
2018-11-05T21:38:42.900Z,100650.98
2018-11-05T21:41:15.874Z,100647.51
2018-11-05T21:43:49.635Z,100650.19
2018-11-05T21:46:21.767Z,100648.52
2018-11-05T21:48:52.922Z,100642.20
2018-11-05T21:51:24.058Z,100638.01
2018-11-05T21:53:55.533Z,100639.30
2018-11-05T21:56:26.855Z,100640.02
2018-11-05T21:58:58.945Z,100641.58
2018-11-05T22:01:32.043Z,100637.97
2018-11-05T22:04:04.301Z,100629.36
2018-11-05T22:06:35.762Z,100638.55
2018-11-05T22:09:09.186Z,100636.49
2018-11-05T22:11:40.586Z,100641.84
2018-11-05T22:14:11.630Z,100639.92
2018-11-05T22:16:42.626Z,100641.04
2018-11-05T22:19:14.181Z,100633.81
2018-11-05T22:21:45.791Z,100633.50
2018-11-05T22:24:17.779Z,100630.65
2018-11-05T22:26:49.029Z,100626.05
2018-11-05T22:29:20.493Z,100634.95
2018-11-05T22:31:51.516Z,100636.01
2018-11-05T22:34:23.189Z,100636.72
2018-11-05T22:36:54.622Z,100638.38
2018-11-05T22:39:26.058Z,100636.13
2018-11-05T22:41:57.107Z,100644.74
2018-11-05T22:44:29.557Z,100647.23
2018-11-05T22:47:03.173Z,100650.76
2018-11-05T22:49:35.118Z,100641.73
2018-11-05T22:52:07.067Z,100639.78
2018-11-05T22:54:38.920Z,100626.21
2018-11-05T22:57:10.618Z,100625.90
2018-11-05T22:59:42.986Z,100626.49
2018-11-05T23:02:15.309Z,100624.13
2018-11-05T23:04:46.780Z,100624.59
2018-11-05T23:07:19.100Z,100629.12
2018-11-05T23:09:50.631Z,100630.78
2018-11-05T23:12:21.658Z,100633.67
2018-11-05T23:14:52.736Z,100626.59
2018-11-05T23:17:23.813Z,100633.05
2018-11-05T23:19:55.719Z,100627.83
2018-11-05T23:22:27.119Z,100634.70
2018-11-05T23:24:59.596Z,100637.98
2018-11-05T23:27:31.308Z,100636.54
2018-11-05T23:30:02.365Z,100642.28
2018-11-05T23:32:36.190Z,100634.88
2018-11-05T23:35:07.943Z,100636.30
2018-11-05T23:37:40.173Z,100638.70
2018-11-05T23:40:12.671Z,100643.15
2018-11-05T23:42:43.705Z,100639.73
2018-11-05T23:45:16.049Z,100638.16
2018-11-05T23:47:48.170Z,100636.75
2018-11-05T23:50:20.116Z,100628.72
2018-11-05T23:52:51.592Z,100633.86
2018-11-05T23:55:23.064Z,100635.41
2018-11-05T23:57:54.760Z,100631.50
